Terminal Aerodrome Forecast
Issued by NWS Blacksburg, VA

Home | Current Version | Previous Version | Text Only | Print | Product List | Glossary On
Versions: 1 2 3 4 5 6 7 8 9 10 11 12 13
000
FTUS41 KRNK 270533
TAFBLF
TAF
KBLF 270533Z 2706/2806 22004KT P6SM SCT080
     FM271500 28006KT P6SM VCTS BKN040CB
     FM271800 29006KT P6SM -SHRA VCTS OVC060CB
     FM272200 29005KT P6SM BKN060=

USA.gov is the U.S. government's official web portal to all federal, state and local government web resources and services.